createdAt,value
2022-09-03T00:01:45.532Z,17.19
2022-09-03T00:04:38.506Z,16.40
2022-09-03T00:07:11.713Z,16.29
2022-09-03T00:09:47.665Z,16.62
2022-09-03T00:12:28.739Z,16.85
2022-09-03T00:15:05.074Z,16.88
2022-09-03T00:17:50.620Z,16.72
2022-09-03T00:20:22.370Z,16.49
2022-09-03T00:22:53.378Z,16.52
2022-09-03T00:25:27.009Z,16.93
2022-09-03T00:27:58.050Z,17.03
2022-09-03T00:30:25.079Z,16.89
2022-09-03T00:33:03.202Z,16.81
2022-09-03T00:35:37.974Z,16.98
2022-09-03T00:38:06.343Z,17.00
2022-09-03T00:40:55.893Z,17.16
2022-09-03T00:43:41.253Z,17.19
2022-09-03T00:46:20.249Z,17.07
2022-09-03T00:49:03.054Z,17.10
2022-09-03T00:51:53.543Z,17.05
2022-09-03T00:54:33.091Z,17.09
2022-09-03T00:57:30.801Z,17.14
2022-09-03T01:00:11.287Z,17.06
2022-09-03T01:02:50.249Z,16.93
2022-09-03T01:05:41.770Z,16.84
2022-09-03T01:08:08.420Z,16.87
2022-09-03T01:11:17.050Z,16.81
2022-09-03T01:13:46.610Z,16.82
2022-09-03T01:16:35.730Z,16.77
2022-09-03T01:19:25.596Z,16.73
2022-09-03T01:22:23.620Z,16.89
2022-09-03T01:25:11.872Z,16.94
2022-09-03T01:28:20.041Z,16.83
2022-09-03T01:30:59.418Z,16.70
2022-09-03T01:33:41.169Z,16.70
2022-09-03T01:36:20.690Z,16.79
2022-09-03T01:39:42.788Z,16.84
2022-09-03T01:42:20.739Z,16.76
2022-09-03T01:44:58.426Z,16.80
2022-09-03T01:47:58.392Z,16.77
2022-09-03T01:50:50.667Z,16.64
2022-09-03T01:53:52.797Z,16.70
2022-09-03T01:56:26.018Z,16.74
2022-09-03T01:59:07.923Z,16.60
2022-09-03T02:01:43.879Z,16.58
2022-09-03T02:04:20.702Z,16.47
2022-09-03T02:06:49.041Z,16.42
2022-09-03T02:09:19.026Z,16.48
2022-09-03T02:11:53.705Z,16.41
2022-09-03T02:14:20.940Z,16.35
2022-09-03T02:16:47.682Z,16.28
2022-09-03T02:19:17.053Z,16.11
2022-09-03T02:21:52.095Z,16.38
2022-09-03T02:24:19.356Z,16.35
2022-09-03T02:26:47.052Z,16.33
2022-09-03T02:29:16.297Z,16.30
2022-09-03T02:31:44.337Z,16.46
2022-09-03T02:34:11.180Z,16.43
2022-09-03T02:36:42.690Z,16.31
2022-09-03T02:39:09.714Z,16.19
2022-09-03T02:41:36.460Z,16.05
2022-09-03T02:44:12.107Z,16.10
2022-09-03T02:46:52.417Z,16.15
2022-09-03T02:49:19.203Z,16.21
2022-09-03T02:51:46.000Z,16.20
2022-09-03T02:54:16.723Z,16.31
2022-09-03T02:56:48.471Z,16.22
2022-09-03T02:59:15.433Z,16.07
2022-09-03T03:01:42.302Z,16.16
2022-09-03T03:04:09.358Z,15.96
2022-09-03T03:06:36.160Z,15.91
2022-09-03T03:09:05.980Z,16.04
2022-09-03T03:11:33.395Z,15.75
2022-09-03T03:14:00.159Z,15.85
2022-09-03T03:16:27.028Z,15.95
2022-09-03T03:18:53.856Z,15.88
2022-09-03T03:21:20.659Z,15.78
2022-09-03T03:23:47.384Z,15.79
2022-09-03T03:26:20.386Z,15.90
2022-09-03T03:28:49.087Z,15.83
2022-09-03T03:31:21.545Z,15.82
2022-09-03T03:33:53.394Z,15.74
2022-09-03T03:36:21.510Z,15.83
2022-09-03T03:38:48.401Z,15.80
2022-09-03T03:41:17.171Z,15.74
2022-09-03T03:43:44.922Z,15.56
2022-09-03T03:46:12.613Z,15.79
2022-09-03T03:48:39.489Z,15.22
2022-09-03T03:51:08.433Z,15.52
2022-09-03T03:53:36.874Z,15.70
2022-09-03T03:56:10.451Z,15.40
2022-09-03T03:58:38.292Z,15.33
2022-09-03T04:01:13.342Z,15.37
2022-09-03T04:03:40.565Z,15.45
2022-09-03T04:06:09.116Z,15.63
2022-09-03T04:08:37.995Z,15.08
2022-09-03T04:11:07.605Z,15.39
2022-09-03T04:13:36.536Z,15.39
2022-09-03T04:16:05.754Z,15.45
2022-09-03T04:18:32.979Z,15.38
2022-09-03T04:21:04.994Z,15.32
2022-09-03T04:23:33.156Z,15.27
2022-09-03T04:26:00.468Z,15.18
2022-09-03T04:28:27.812Z,15.04
2022-09-03T04:30:55.130Z,14.65
2022-09-03T04:33:25.111Z,14.76
2022-09-03T04:35:52.658Z,15.04
2022-09-03T04:38:19.503Z,15.41
2022-09-03T04:40:52.717Z,16.16
2022-09-03T04:43:19.478Z,16.53
2022-09-03T04:45:46.222Z,16.92
2022-09-03T04:48:13.646Z,17.54
2022-09-03T04:50:40.656Z,18.14
2022-09-03T04:53:08.305Z,18.98
2022-09-03T04:55:38.638Z,19.73
2022-09-03T04:58:08.078Z,20.26
2022-09-03T05:00:36.802Z,20.76
2022-09-03T05:03:05.269Z,21.19
2022-09-03T05:05:33.941Z,21.46
2022-09-03T05:08:04.337Z,21.87
2022-09-03T05:10:32.308Z,22.60
2022-09-03T05:13:01.379Z,23.25
2022-09-03T05:15:29.964Z,23.20
2022-09-03T05:17:59.282Z,23.97
2022-09-03T05:20:26.785Z,24.59
2022-09-03T05:22:53.654Z,25.07
2022-09-03T05:25:20.512Z,25.51
2022-09-03T05:27:47.297Z,25.96
2022-09-03T05:30:14.507Z,26.50
2022-09-03T05:32:41.806Z,26.75
2022-09-03T05:35:09.393Z,26.92
2022-09-03T05:37:36.189Z,26.62
2022-09-03T05:40:03.582Z,26.52
2022-09-03T05:42:32.438Z,26.61
2022-09-03T05:45:00.285Z,26.84
2022-09-03T05:47:27.048Z,27.21
2022-09-03T05:49:53.830Z,26.96
2022-09-03T05:52:21.866Z,27.12
2022-09-03T05:54:48.658Z,27.21
2022-09-03T05:57:16.150Z,27.20
2022-09-03T05:59:42.870Z,26.99
2022-09-03T06:02:09.751Z,26.47
2022-09-03T06:04:38.950Z,26.25
2022-09-03T06:07:05.694Z,26.04
2022-09-03T06:09:32.411Z,26.08
2022-09-03T06:12:00.028Z,26.29
2022-09-03T06:14:30.671Z,26.02
2022-09-03T06:16:57.442Z,25.90
2022-09-03T06:19:24.262Z,25.79
2022-09-03T06:21:51.301Z,25.93
2022-09-03T06:24:28.309Z,26.82
2022-09-03T06:26:56.817Z,27.08
2022-09-03T06:29:23.634Z,27.02
2022-09-03T06:31:51.090Z,26.93
2022-09-03T06:34:18.684Z,27.12
2022-09-03T06:36:46.384Z,26.79
2022-09-03T06:39:13.135Z,26.29
2022-09-03T06:41:40.280Z,26.62
2022-09-03T06:44:11.967Z,26.61
2022-09-03T06:46:42.771Z,26.65
2022-09-03T06:49:11.116Z,26.80
2022-09-03T06:51:39.098Z,26.87
2022-09-03T06:54:08.463Z,25.80
2022-09-03T06:56:40.189Z,26.45
2022-09-03T06:59:14.510Z,27.28
2022-09-03T07:01:44.435Z,28.33
2022-09-03T07:04:13.702Z,28.49
2022-09-03T07:06:42.802Z,28.99
2022-09-03T07:09:10.828Z,29.65
2022-09-03T07:11:40.352Z,30.08
2022-09-03T07:14:07.135Z,30.29
2022-09-03T07:16:37.811Z,30.31
2022-09-03T07:19:09.334Z,30.41
2022-09-03T07:21:37.118Z,31.07
2022-09-03T07:24:05.832Z,30.48
2022-09-03T07:26:38.862Z,30.25
2022-09-03T07:29:07.999Z,30.30
2022-09-03T07:31:41.027Z,30.48
2022-09-03T07:34:10.840Z,30.30
2022-09-03T07:36:47.745Z,29.98
2022-09-03T07:39:16.708Z,30.52
2022-09-03T07:41:45.935Z,30.64
2022-09-03T07:44:20.126Z,31.03
2022-09-03T07:46:50.326Z,31.10
2022-09-03T07:49:17.479Z,31.09
2022-09-03T07:51:44.451Z,31.43
2022-09-03T07:54:11.873Z,31.84
2022-09-03T07:56:40.578Z,32.04
2022-09-03T07:59:08.165Z,31.24
2022-09-03T08:01:36.097Z,28.11
2022-09-03T08:04:04.413Z,27.19
2022-09-03T08:06:32.932Z,26.75
2022-09-03T08:09:05.403Z,26.24
2022-09-03T08:11:35.355Z,26.82
2022-09-03T08:14:06.754Z,27.45
2022-09-03T08:16:42.691Z,28.06
2022-09-03T08:19:11.527Z,28.42
2022-09-03T08:21:38.699Z,28.68
2022-09-03T08:24:06.638Z,28.58
2022-09-03T08:26:39.011Z,29.19
2022-09-03T08:29:06.799Z,29.22
2022-09-03T08:31:35.080Z,29.78
2022-09-03T08:34:05.038Z,30.20
2022-09-03T08:36:34.098Z,29.62
2022-09-03T08:39:10.284Z,30.09
2022-09-03T08:41:46.389Z,30.15
2022-09-03T08:44:47.961Z,29.81
2022-09-03T08:47:29.224Z,29.74
2022-09-03T08:50:13.665Z,28.20
2022-09-03T08:53:03.179Z,28.65
2022-09-03T08:55:56.168Z,28.05
2022-09-03T08:58:26.804Z,27.71
2022-09-03T09:01:13.853Z,28.22
2022-09-03T09:04:08.295Z,27.57
2022-09-03T09:07:05.831Z,27.07
2022-09-03T09:09:59.679Z,26.80
2022-09-03T09:12:48.237Z,27.36
2022-09-03T09:15:39.558Z,28.05
2022-09-03T09:18:14.094Z,29.09
2022-09-03T09:20:54.960Z,29.03
2022-09-03T09:23:38.370Z,27.56
2022-09-03T09:26:10.954Z,28.08
2022-09-03T09:28:39.119Z,28.96
2022-09-03T09:31:15.586Z,29.61
2022-09-03T09:33:42.881Z,29.61
2022-09-03T09:36:15.577Z,30.37
2022-09-03T09:38:43.679Z,30.76
2022-09-03T09:41:30.048Z,31.43
2022-09-03T09:44:08.075Z,32.17
2022-09-03T09:46:38.954Z,32.50
2022-09-03T09:49:29.216Z,32.72
2022-09-03T09:52:04.415Z,32.55
2022-09-03T09:54:31.352Z,32.94
2022-09-03T09:57:05.118Z,32.87
2022-09-03T09:59:34.316Z,33.48
2022-09-03T10:02:22.534Z,33.72
2022-09-03T10:04:50.214Z,32.94
2022-09-03T10:07:27.343Z,33.61
2022-09-03T10:10:15.175Z,33.98
2022-09-03T10:12:51.972Z,33.73
2022-09-03T10:15:24.138Z,33.38
2022-09-03T10:18:08.589Z,32.99
2022-09-03T10:20:47.861Z,32.47
2022-09-03T10:23:30.745Z,32.84
2022-09-03T10:25:58.279Z,33.52
2022-09-03T10:28:30.478Z,33.87
2022-09-03T10:31:08.740Z,34.64
2022-09-03T10:33:42.672Z,34.98
2022-09-03T10:36:19.847Z,35.11
2022-09-03T10:38:53.153Z,35.35
2022-09-03T10:41:35.491Z,35.19
2022-09-03T10:44:13.522Z,34.01
2022-09-03T10:47:08.071Z,34.30
2022-09-03T10:50:00.109Z,34.47
2022-09-03T10:52:32.767Z,32.68
2022-09-03T10:55:31.714Z,33.38
2022-09-03T10:58:01.459Z,34.41
2022-09-03T11:00:30.985Z,34.86
2022-09-03T11:03:57.163Z,35.16
2022-09-03T11:06:29.193Z,35.57
2022-09-03T11:09:07.583Z,35.78
2022-09-03T11:11:45.323Z,35.97
2022-09-03T11:14:16.874Z,36.22
2022-09-03T11:16:48.593Z,35.46
2022-09-03T11:19:19.268Z,36.00
2022-09-03T11:21:48.629Z,36.15
2022-09-03T11:24:24.911Z,35.31
2022-09-03T11:27:02.990Z,35.56
2022-09-03T11:30:15.542Z,35.91
2022-09-03T11:32:46.819Z,35.54
2022-09-03T11:35:41.189Z,35.32
2022-09-03T11:38:17.083Z,35.67
2022-09-03T11:41:26.189Z,35.84
2022-09-03T11:43:54.586Z,35.71
2022-09-03T11:46:21.989Z,35.70
2022-09-03T11:48:55.624Z,35.71
2022-09-03T11:51:25.398Z,35.20
2022-09-03T11:54:21.058Z,33.04
2022-09-03T11:56:49.896Z,32.49
2022-09-03T11:59:27.170Z,33.19
2022-09-03T12:02:34.707Z,32.00
2022-09-03T12:05:20.057Z,32.23
2022-09-03T12:08:11.037Z,32.82
2022-09-03T12:10:40.794Z,33.73
2022-09-03T12:13:40.631Z,34.53
2022-09-03T12:16:19.439Z,34.78
2022-09-03T12:18:49.476Z,33.56
2022-09-03T12:21:17.467Z,33.43
2022-09-03T12:23:48.100Z,33.79
2022-09-03T12:26:20.067Z,33.28
2022-09-03T12:28:50.154Z,32.35
2022-09-03T12:31:29.835Z,32.77
2022-09-03T12:34:02.165Z,32.53
2022-09-03T12:36:40.945Z,31.73
2022-09-03T12:42:25.290Z,30.59
2022-09-03T12:44:52.226Z,31.54
2022-09-03T12:47:38.044Z,30.92
2022-09-03T12:50:11.662Z,30.96
2022-09-03T12:52:41.715Z,31.65
2022-09-03T12:55:49.476Z,32.17
2022-09-03T12:58:20.990Z,30.39
2022-09-03T13:01:13.700Z,30.11
2022-09-03T13:03:50.503Z,31.29
2022-09-03T13:06:21.964Z,30.70
2022-09-03T13:08:57.263Z,29.97
2022-09-03T13:11:25.732Z,30.72
2022-09-03T13:14:11.297Z,30.57
2022-09-03T13:16:38.137Z,30.58
2022-09-03T13:19:25.074Z,31.32
2022-09-03T13:22:33.420Z,31.97
2022-09-03T13:25:05.824Z,31.95
2022-09-03T13:27:32.606Z,32.60
2022-09-03T13:30:19.438Z,33.11
2022-09-03T13:33:12.305Z,33.68
2022-09-03T13:36:10.119Z,33.08
2022-09-03T13:38:43.944Z,32.09
2022-09-03T13:41:32.571Z,32.64
2022-09-03T13:44:35.911Z,32.87
2022-09-03T13:47:26.542Z,33.05
2022-09-03T13:50:21.008Z,33.79
2022-09-03T13:53:02.902Z,33.59
2022-09-03T13:55:48.392Z,34.18
2022-09-03T13:58:43.295Z,34.37
2022-09-03T14:01:39.314Z,34.46
2022-09-03T14:04:19.931Z,34.44
2022-09-03T14:06:58.026Z,34.74
2022-09-03T14:09:35.057Z,34.72
2022-09-03T14:12:25.016Z,34.81
2022-09-03T14:15:18.475Z,34.83
2022-09-03T14:18:03.305Z,34.91
2022-09-03T14:20:53.984Z,34.98
2022-09-03T14:23:38.824Z,34.45
2022-09-03T14:26:07.632Z,34.07
2022-09-03T14:28:40.436Z,34.07
2022-09-03T14:31:19.437Z,34.26
2022-09-03T14:33:46.084Z,33.87
2022-09-03T14:36:21.213Z,34.02
2022-09-03T14:39:13.214Z,34.12
2022-09-03T14:42:23.959Z,34.25
2022-09-03T14:44:56.791Z,33.79
2022-09-03T14:47:48.618Z,33.97
2022-09-03T14:50:46.559Z,33.72
2022-09-03T14:53:21.976Z,33.58
2022-09-03T14:56:07.217Z,33.57
2022-09-03T14:58:58.688Z,33.32
2022-09-03T15:01:29.572Z,33.31
2022-09-03T15:04:54.636Z,33.24
2022-09-03T15:07:28.110Z,33.27
2022-09-03T15:10:19.359Z,32.97
2022-09-03T15:12:55.296Z,33.06
2022-09-03T15:15:34.076Z,32.81
2022-09-03T15:18:12.785Z,31.37
2022-09-03T15:20:58.160Z,31.27
2022-09-03T15:23:43.735Z,31.43
2022-09-03T15:26:20.825Z,31.59
2022-09-03T15:29:40.582Z,31.30
2022-09-03T15:32:17.067Z,31.11
2022-09-03T15:34:49.132Z,30.61
2022-09-03T15:37:28.618Z,29.95
2022-09-03T15:40:50.141Z,29.40
2022-09-03T15:43:26.264Z,28.80
2022-09-03T15:45:58.511Z,27.81
2022-09-03T15:48:39.501Z,27.59
2022-09-03T15:51:29.003Z,27.90
2022-09-03T15:54:07.912Z,28.04
2022-09-03T15:56:38.633Z,27.65
2022-09-03T15:59:08.121Z,27.26
2022-09-03T16:01:46.391Z,27.33
2022-09-03T16:04:16.001Z,27.96
2022-09-03T16:07:18.163Z,27.71
2022-09-03T16:10:24.208Z,26.64
2022-09-03T16:13:29.020Z,27.15
2022-09-03T16:16:34.245Z,27.30
2022-09-03T16:19:10.777Z,27.01
2022-09-03T16:21:50.926Z,26.83
2022-09-03T16:24:24.065Z,27.10
2022-09-03T16:26:58.199Z,27.05
2022-09-03T16:29:31.236Z,27.24
2022-09-03T16:32:39.666Z,27.54
2022-09-03T16:35:09.034Z,27.35
2022-09-03T16:37:45.433Z,27.46
2022-09-03T16:40:27.976Z,27.20
2022-09-03T16:43:00.741Z,27.49
2022-09-03T16:45:34.633Z,27.36
2022-09-03T16:48:04.458Z,27.03
2022-09-03T16:50:52.160Z,27.53
2022-09-03T16:53:46.069Z,27.30
2022-09-03T16:56:12.776Z,27.47
2022-09-03T16:59:36.766Z,27.55
2022-09-03T17:02:40.010Z,27.50
2022-09-03T17:05:23.054Z,26.93
2022-09-03T17:08:21.038Z,27.17
2022-09-03T17:11:00.063Z,27.21
2022-09-03T17:13:42.051Z,27.11
2022-09-03T17:16:23.652Z,27.09
2022-09-03T17:19:09.991Z,27.25
2022-09-03T17:22:05.677Z,26.98
2022-09-03T17:24:38.175Z,26.80
2022-09-03T17:27:32.309Z,26.52
2022-09-03T17:30:24.214Z,26.36
2022-09-03T17:33:35.089Z,26.22
2022-09-03T17:36:08.521Z,25.77
2022-09-03T17:38:44.036Z,26.04
2022-09-03T17:41:35.680Z,25.75
2022-09-03T17:44:09.303Z,25.78
2022-09-03T17:46:57.938Z,25.76
2022-09-03T17:49:42.579Z,25.75
2022-09-03T17:52:41.541Z,25.55
2022-09-03T17:55:15.869Z,25.48
2022-09-03T17:57:54.294Z,25.03
2022-09-03T18:00:59.093Z,24.34
2022-09-03T18:03:30.306Z,24.00
2022-09-03T18:06:01.456Z,24.10
2022-09-03T18:08:45.124Z,24.55
2022-09-03T18:11:38.164Z,24.70
2022-09-03T18:14:31.155Z,24.66
2022-09-03T18:17:12.433Z,24.72
2022-09-03T18:20:22.388Z,24.80
2022-09-03T18:23:11.264Z,24.93
2022-09-03T18:26:01.267Z,24.72
2022-09-03T18:29:12.840Z,24.78
2022-09-03T18:31:58.569Z,24.90
2022-09-03T18:34:50.303Z,24.85
2022-09-03T18:37:39.611Z,24.45
2022-09-03T18:40:28.885Z,24.73
2022-09-03T18:43:58.753Z,24.82
2022-09-03T18:48:01.633Z,24.83
2022-09-03T18:50:22.907Z,24.76
2022-09-03T18:53:21.225Z,24.73
2022-09-03T18:56:31.550Z,24.57
2022-09-03T19:00:12.285Z,24.57
2022-09-03T19:03:26.786Z,24.67
2022-09-03T19:06:24.524Z,24.48
2022-09-03T19:09:35.915Z,24.21
2022-09-03T19:12:40.029Z,24.03
2022-09-03T19:15:39.947Z,23.23
2022-09-03T19:18:29.770Z,23.32
2022-09-03T19:21:24.295Z,23.50
2022-09-03T19:24:12.018Z,23.58
2022-09-03T19:27:53.030Z,23.08
2022-09-03T19:30:43.329Z,23.10
2022-09-03T19:34:02.838Z,23.02
2022-09-03T19:37:07.952Z,22.85
2022-09-03T19:40:11.615Z,22.63
2022-09-03T19:43:28.039Z,22.61
2022-09-03T19:47:01.319Z,22.36
2022-09-03T19:49:59.886Z,22.23
2022-09-03T19:53:01.427Z,22.53
2022-09-03T19:55:53.014Z,22.62
2022-09-03T19:58:44.424Z,22.36
2022-09-03T20:01:31.963Z,22.20
2022-09-03T20:04:30.693Z,22.17
2022-09-03T20:07:19.380Z,22.32
2022-09-03T20:10:07.112Z,22.33
2022-09-03T20:12:38.845Z,22.43
2022-09-03T20:15:08.573Z,22.57
2022-09-03T20:17:35.275Z,22.61
2022-09-03T20:20:32.804Z,22.41
2022-09-03T20:23:14.546Z,22.19
2022-09-03T20:25:53.410Z,22.05
2022-09-03T20:28:26.208Z,22.06
2022-09-03T20:31:03.930Z,22.25
2022-09-03T20:33:53.697Z,22.19
2022-09-03T20:36:26.371Z,22.20
2022-09-03T20:39:15.626Z,21.71
2022-09-03T20:41:48.426Z,21.87
2022-09-03T20:44:32.078Z,21.58
2022-09-03T20:47:14.147Z,21.36
2022-09-03T20:50:23.467Z,21.47
2022-09-03T20:53:02.206Z,21.47
2022-09-03T20:55:51.035Z,21.62
2022-09-03T20:58:48.097Z,21.43
2022-09-03T21:01:31.046Z,21.58
2022-09-03T21:04:17.671Z,21.49
2022-09-03T21:06:50.334Z,21.45
2022-09-03T21:09:53.130Z,21.32
2022-09-03T21:12:44.811Z,21.38
2022-09-03T21:15:37.480Z,21.12
2022-09-03T21:18:13.573Z,20.74
2022-09-03T21:21:01.624Z,20.67
2022-09-03T21:23:33.218Z,20.69
2022-09-03T21:26:28.412Z,20.47
2022-09-03T21:29:10.453Z,20.67
2022-09-03T21:31:50.582Z,20.77
2022-09-03T21:34:45.632Z,20.46
2022-09-03T21:37:14.351Z,20.53
2022-09-03T21:39:56.502Z,20.57
2022-09-03T21:42:59.937Z,20.37
2022-09-03T21:45:32.367Z,20.60
2022-09-03T21:48:25.258Z,20.72
2022-09-03T21:50:58.426Z,20.54
2022-09-03T21:53:49.439Z,20.42
2022-09-03T21:56:22.016Z,20.47
2022-09-03T21:59:09.628Z,20.40
2022-09-03T22:01:41.993Z,20.39
2022-09-03T22:04:09.707Z,20.31
2022-09-03T22:07:00.164Z,20.11
2022-09-03T22:09:30.735Z,19.82
2022-09-03T22:12:13.775Z,19.64
2022-09-03T22:14:48.245Z,19.95
2022-09-03T22:17:30.245Z,19.52
2022-09-03T22:19:57.205Z,19.76
2022-09-03T22:22:44.213Z,19.97
2022-09-03T22:25:20.285Z,19.89
2022-09-03T22:28:00.925Z,19.79
2022-09-03T22:30:37.525Z,19.81
2022-09-03T22:33:37.046Z,19.79
2022-09-03T22:36:28.070Z,18.87
2022-09-03T22:39:36.461Z,19.62
2022-09-03T22:42:28.317Z,19.63
2022-09-03T22:45:13.629Z,19.49
2022-09-03T22:48:09.565Z,19.34
2022-09-03T22:50:42.346Z,18.90
2022-09-03T22:53:38.335Z,19.28
2022-09-03T22:56:13.154Z,19.19
2022-09-03T22:58:48.126Z,19.35
2022-09-03T23:01:25.142Z,19.38
2022-09-03T23:04:00.067Z,19.30
2022-09-03T23:06:32.658Z,19.25
2022-09-03T23:09:04.645Z,19.10
2022-09-03T23:11:53.113Z,19.36
2022-09-03T23:14:28.527Z,19.25
2022-09-03T23:17:00.603Z,19.16
2022-09-03T23:19:39.107Z,19.37
2022-09-03T23:22:13.378Z,19.28
2022-09-03T23:24:49.467Z,19.06
2022-09-03T23:27:27.355Z,18.75
2022-09-03T23:29:57.046Z,19.03
2022-09-03T23:32:25.546Z,18.97
2022-09-03T23:34:58.370Z,19.12
2022-09-03T23:37:47.205Z,18.55
2022-09-03T23:40:33.197Z,18.65
2022-09-03T23:42:59.836Z,18.50
2022-09-03T23:46:04.124Z,18.54
2022-09-03T23:48:36.839Z,18.46
2022-09-03T23:51:31.246Z,18.49
2022-09-03T23:54:33.135Z,17.83
2022-09-03T23:57:08.451Z,18.56
2022-09-03T23:59:41.214Z,18.17
